createdAt,value
2018-10-17T00:00:30.694Z,13.51
2018-10-17T00:01:30.523Z,13.51
2018-10-17T00:02:30.603Z,13.49
2018-10-17T00:03:30.535Z,13.47
2018-10-17T00:04:30.621Z,13.5
2018-10-17T00:05:30.751Z,13.46
2018-10-17T00:06:30.535Z,13.46
2018-10-17T00:07:31.100Z,13.45
2018-10-17T00:08:30.522Z,13.45
2018-10-17T00:09:30.499Z,13.41
2018-10-17T00:10:30.572Z,13.41
2018-10-17T00:11:30.547Z,13.4
2018-10-17T00:12:30.541Z,13.4
2018-10-17T00:13:30.595Z,13.4
2018-10-17T00:14:30.512Z,13.37
2018-10-17T00:15:30.497Z,13.39
2018-10-17T00:16:30.471Z,13.39
2018-10-17T00:17:30.543Z,13.39
2018-10-17T00:18:30.464Z,13.39
2018-10-17T00:19:30.474Z,13.4
2018-10-17T00:20:30.477Z,13.37
2018-10-17T00:21:30.664Z,13.36
2018-10-17T00:23:30.551Z,13.34
2018-10-17T00:24:30.582Z,13.34
2018-10-17T00:25:30.458Z,13.32
2018-10-17T00:26:30.472Z,13.31
2018-10-17T00:27:30.505Z,13.3
2018-10-17T00:28:30.449Z,13.28
2018-10-17T00:29:30.495Z,13.27
2018-10-17T00:30:30.471Z,13.27
2018-10-17T00:31:30.829Z,13.27
2018-10-17T00:32:30.591Z,13.27
2018-10-17T00:33:30.453Z,13.26
2018-10-17T00:34:30.467Z,13.26
2018-10-17T00:35:30.430Z,13.24
2018-10-17T00:36:30.457Z,13.24
2018-10-17T00:37:30.452Z,13.23
2018-10-17T00:38:30.455Z,13.21
2018-10-17T00:39:30.411Z,13.2
2018-10-17T00:40:31.458Z,13.18
2018-10-17T00:41:30.471Z,13.14
2018-10-17T00:42:30.434Z,13.1
2018-10-17T00:43:30.435Z,13.09
2018-10-17T00:45:30.441Z,13.02
2018-10-17T00:46:30.485Z,12.96
2018-10-17T00:47:30.459Z,12.92
2018-10-17T00:48:30.427Z,12.89
2018-10-17T00:49:30.442Z,12.83
2018-10-17T00:50:30.515Z,12.81
2018-10-17T00:51:30.452Z,12.77
2018-10-17T00:52:30.485Z,12.81
2018-10-17T00:53:30.433Z,12.78
2018-10-17T00:54:30.511Z,12.77
2018-10-17T00:55:30.448Z,12.74
2018-10-17T00:56:30.560Z,12.73
2018-10-17T00:57:30.435Z,12.74
2018-10-17T00:58:30.828Z,12.73
2018-10-17T00:59:30.420Z,12.72
2018-10-17T01:00:30.812Z,12.71
2018-10-17T01:01:30.618Z,12.68
2018-10-17T01:02:30.670Z,12.68
2018-10-17T01:03:30.446Z,12.68
2018-10-17T01:04:30.777Z,12.68
2018-10-17T01:05:30.466Z,12.68
2018-10-17T01:06:30.491Z,12.69
2018-10-17T01:07:30.577Z,12.7
2018-10-17T01:08:30.436Z,12.7
2018-10-17T01:09:30.449Z,12.72
2018-10-17T01:10:30.568Z,12.73
2018-10-17T01:11:30.434Z,12.74
2018-10-17T01:12:30.496Z,12.72
2018-10-17T01:13:30.397Z,12.74
2018-10-17T01:14:30.508Z,12.71
2018-10-17T01:15:30.417Z,12.69
2018-10-17T01:16:30.568Z,12.67
2018-10-17T01:17:30.534Z,12.63
2018-10-17T01:18:30.873Z,12.61
2018-10-17T01:19:30.648Z,12.62
2018-10-17T01:20:30.501Z,12.62
2018-10-17T01:21:30.399Z,12.64
2018-10-17T01:22:30.382Z,12.67
2018-10-17T01:23:30.365Z,12.68
2018-10-17T01:24:30.422Z,12.68
2018-10-17T01:25:30.687Z,12.69
2018-10-17T01:26:30.565Z,12.7
2018-10-17T01:27:30.415Z,12.7
2018-10-17T01:28:30.417Z,12.7
2018-10-17T01:29:30.436Z,12.7
2018-10-17T01:30:30.514Z,12.7
2018-10-17T01:31:30.493Z,12.7
2018-10-17T01:32:30.396Z,12.67
2018-10-17T01:33:30.572Z,12.61
2018-10-17T01:34:30.386Z,12.57
2018-10-17T01:35:30.452Z,12.55
2018-10-17T01:36:30.646Z,12.49
2018-10-17T01:37:30.489Z,12.47
2018-10-17T01:38:30.595Z,12.48
2018-10-17T01:39:30.761Z,12.48
2018-10-17T01:40:30.466Z,12.45
2018-10-17T01:41:30.434Z,12.44
2018-10-17T01:42:30.644Z,12.45
2018-10-17T01:43:30.492Z,12.46
2018-10-17T01:44:30.488Z,12.41
2018-10-17T01:45:30.391Z,12.42
2018-10-17T01:46:30.459Z,12.41
2018-10-17T01:47:30.483Z,12.39
2018-10-17T01:48:30.529Z,12.41
2018-10-17T01:49:30.424Z,12.39
2018-10-17T01:50:30.404Z,12.41
2018-10-17T01:51:30.417Z,12.37
2018-10-17T01:52:30.672Z,12.35
2018-10-17T01:53:30.327Z,12.33
2018-10-17T01:54:30.325Z,12.32
2018-10-17T01:55:30.384Z,12.32
2018-10-17T01:56:30.432Z,12.31
2018-10-17T01:57:30.329Z,12.31
2018-10-17T01:58:30.381Z,12.33
2018-10-17T01:59:30.364Z,12.36
2018-10-17T02:00:30.429Z,12.34
2018-10-17T02:01:30.402Z,12.29
2018-10-17T02:02:30.383Z,12.29
2018-10-17T02:03:30.450Z,12.27
2018-10-17T02:04:30.351Z,12.27
2018-10-17T02:05:30.364Z,12.28
2018-10-17T02:06:30.368Z,12.27
2018-10-17T02:07:30.352Z,12.23
2018-10-17T02:08:30.408Z,12.22
2018-10-17T02:09:30.366Z,12.22
2018-10-17T02:10:30.366Z,12.23
2018-10-17T02:11:30.332Z,12.27
2018-10-17T02:12:30.515Z,12.24
2018-10-17T02:14:30.634Z,12.31
2018-10-17T02:15:30.480Z,12.29
2018-10-17T02:16:30.333Z,12.28
2018-10-17T02:17:30.321Z,12.29
2018-10-17T02:18:30.659Z,12.29
2018-10-17T02:19:30.510Z,12.28
2018-10-17T02:20:30.356Z,12.3
2018-10-17T02:21:30.390Z,12.28
2018-10-17T02:22:30.323Z,12.27
2018-10-17T02:23:30.418Z,12.29
2018-10-17T02:24:30.320Z,12.29
2018-10-17T02:25:30.365Z,12.32
2018-10-17T02:26:30.614Z,12.32
2018-10-17T02:27:30.311Z,12.32
2018-10-17T02:28:30.316Z,12.29
2018-10-17T02:29:30.523Z,12.25
2018-10-17T02:30:30.368Z,12.26
2018-10-17T02:31:30.363Z,12.23
2018-10-17T02:32:30.319Z,12.25
2018-10-17T02:33:30.308Z,12.23
2018-10-17T02:34:30.258Z,12.22
2018-10-17T02:35:30.296Z,12.22
2018-10-17T02:36:30.445Z,12.21
2018-10-17T02:37:30.556Z,12.21
2018-10-17T02:38:30.474Z,12.18
2018-10-17T02:39:30.892Z,12.16
2018-10-17T02:40:30.429Z,12.13
2018-10-17T02:41:30.324Z,12.1
2018-10-17T02:42:30.314Z,12.1
2018-10-17T02:43:30.416Z,12.08
2018-10-17T02:44:30.295Z,12.1
2018-10-17T02:45:30.344Z,12.06
2018-10-17T02:46:30.477Z,12.08
2018-10-17T02:47:30.346Z,12.06
2018-10-17T02:48:30.309Z,12.05
2018-10-17T02:49:30.661Z,12.03
2018-10-17T02:50:30.407Z,12
2018-10-17T02:51:30.357Z,11.99
2018-10-17T02:52:30.365Z,11.98
2018-10-17T02:53:30.279Z,11.94
2018-10-17T02:54:30.272Z,11.92
2018-10-17T02:55:30.285Z,11.91
2018-10-17T02:56:30.392Z,11.9
2018-10-17T02:57:30.297Z,11.89
2018-10-17T02:58:30.363Z,11.87
2018-10-17T02:59:30.302Z,11.86
2018-10-17T03:00:30.279Z,11.86
2018-10-17T03:01:30.493Z,11.87
2018-10-17T03:02:30.384Z,11.89
2018-10-17T03:03:30.653Z,11.86
2018-10-17T03:04:34.319Z,11.86
2018-10-17T03:05:30.369Z,11.86
2018-10-17T03:06:30.550Z,11.87
2018-10-17T03:07:30.504Z,11.85
2018-10-17T03:08:30.297Z,11.85
2018-10-17T03:09:30.576Z,11.82
2018-10-17T03:10:30.291Z,11.81
2018-10-17T03:11:30.293Z,11.81
2018-10-17T03:12:30.309Z,11.81
2018-10-17T03:13:30.285Z,11.8
2018-10-17T03:14:30.319Z,11.79
2018-10-17T03:15:30.277Z,11.79
2018-10-17T03:16:30.240Z,11.79
2018-10-17T03:17:30.245Z,11.79
2018-10-17T03:18:30.444Z,11.79
2018-10-17T03:19:30.233Z,11.79
2018-10-17T03:20:30.252Z,11.81
2018-10-17T03:21:30.295Z,11.78
2018-10-17T03:22:30.245Z,11.77
2018-10-17T03:23:30.523Z,11.75
2018-10-17T03:24:30.249Z,11.75
2018-10-17T03:25:30.281Z,11.74
2018-10-17T03:26:30.299Z,11.73
2018-10-17T03:27:30.263Z,11.74
2018-10-17T03:28:30.214Z,11.73
2018-10-17T03:29:30.193Z,11.76
2018-10-17T03:30:30.541Z,11.74
2018-10-17T03:31:32.018Z,11.74
2018-10-17T03:32:30.266Z,11.75
2018-10-17T03:33:30.277Z,11.73
2018-10-17T03:34:30.224Z,11.73
2018-10-17T03:35:30.374Z,11.73
2018-10-17T03:36:30.233Z,11.74
2018-10-17T03:37:30.268Z,11.74
2018-10-17T03:38:30.249Z,11.76
2018-10-17T03:39:30.208Z,11.73
2018-10-17T03:40:30.256Z,11.76
2018-10-17T03:41:30.250Z,11.73
2018-10-17T03:42:30.254Z,11.73
2018-10-17T03:43:30.197Z,11.72
2018-10-17T03:44:30.216Z,11.7
2018-10-17T03:45:30.648Z,11.72
2018-10-17T03:46:30.208Z,11.72
2018-10-17T03:47:30.258Z,11.67
2018-10-17T03:48:30.268Z,11.62
2018-10-17T03:49:30.734Z,11.62
2018-10-17T03:50:30.343Z,11.59
2018-10-17T03:51:30.164Z,11.58
2018-10-17T03:52:30.206Z,11.59
2018-10-17T03:53:30.206Z,11.6
2018-10-17T03:54:30.204Z,11.6
2018-10-17T03:55:30.296Z,11.59
2018-10-17T03:56:30.252Z,11.59
2018-10-17T03:57:30.298Z,11.57
2018-10-17T03:58:30.312Z,11.57
2018-10-17T03:59:32.759Z,11.56
2018-10-17T04:00:30.171Z,11.58
2018-10-17T04:01:30.187Z,11.58
2018-10-17T04:02:30.566Z,11.58
2018-10-17T04:03:30.236Z,11.58
2018-10-17T04:04:30.205Z,11.53
2018-10-17T04:05:30.340Z,11.53
2018-10-17T04:06:30.292Z,11.51
2018-10-17T04:07:30.212Z,11.48
2018-10-17T04:08:30.420Z,11.48
2018-10-17T04:09:30.551Z,11.47
2018-10-17T04:10:30.698Z,11.52
2018-10-17T04:11:30.295Z,11.52
2018-10-17T04:12:30.207Z,11.51
2018-10-17T04:13:30.279Z,11.48
2018-10-17T04:14:30.220Z,11.47
2018-10-17T04:15:30.280Z,11.46
2018-10-17T04:16:30.251Z,11.39
2018-10-17T04:17:30.298Z,11.4
2018-10-17T04:18:30.306Z,11.38
2018-10-17T04:19:30.713Z,11.4
2018-10-17T04:20:30.265Z,11.41
2018-10-17T04:21:30.170Z,11.41
2018-10-17T04:22:31.111Z,11.42
2018-10-17T04:23:30.227Z,11.43
2018-10-17T04:24:30.267Z,11.47
2018-10-17T04:25:30.265Z,11.47
2018-10-17T04:26:30.169Z,11.47
2018-10-17T04:27:30.279Z,11.47
2018-10-17T04:28:30.575Z,11.48
2018-10-17T04:29:30.294Z,11.47
2018-10-17T04:30:30.191Z,11.46
2018-10-17T04:31:30.429Z,11.45
2018-10-17T04:32:30.771Z,11.42
2018-10-17T04:33:30.426Z,11.41
2018-10-17T04:34:30.219Z,11.42
2018-10-17T04:35:30.157Z,11.38
2018-10-17T04:36:30.268Z,11.4
2018-10-17T04:37:30.711Z,11.4
2018-10-17T04:38:30.731Z,11.4
2018-10-17T04:39:30.314Z,11.41
2018-10-17T04:40:30.149Z,11.42
2018-10-17T04:41:30.554Z,11.43
2018-10-17T04:42:30.129Z,11.45
2018-10-17T04:43:30.435Z,11.45
2018-10-17T04:44:30.229Z,11.43
2018-10-17T04:45:30.165Z,11.41
2018-10-17T04:46:30.125Z,11.36
2018-10-17T04:47:30.549Z,11.38
2018-10-17T04:48:30.227Z,11.35
2018-10-17T04:49:30.153Z,11.35
2018-10-17T04:50:30.274Z,11.35
2018-10-17T04:51:30.149Z,11.36
2018-10-17T04:52:30.499Z,11.37
2018-10-17T04:53:30.380Z,11.36
2018-10-17T04:54:30.179Z,11.33
2018-10-17T04:55:30.124Z,11.3
2018-10-17T04:56:30.075Z,11.3
2018-10-17T04:57:30.162Z,11.28
2018-10-17T04:58:30.186Z,11.25
2018-10-17T04:59:30.122Z,11.26
2018-10-17T05:00:30.276Z,11.23
2018-10-17T05:01:30.141Z,11.22
2018-10-17T05:02:30.090Z,11.22
2018-10-17T05:03:30.070Z,11.21
2018-10-17T05:04:30.539Z,11.19
2018-10-17T05:05:30.111Z,11.21
2018-10-17T05:06:30.064Z,11.19
2018-10-17T05:07:30.152Z,11.21
2018-10-17T05:08:30.159Z,11.21
2018-10-17T05:09:29.704Z,11.19
2018-10-17T05:10:30.351Z,11.22
2018-10-17T05:11:30.219Z,11.22
2018-10-17T05:12:30.184Z,11.25
2018-10-17T05:13:30.363Z,11.26
2018-10-17T05:14:30.169Z,11.28
2018-10-17T05:15:30.178Z,11.29
2018-10-17T05:16:30.596Z,11.33
2018-10-17T05:17:30.448Z,11.36
2018-10-17T05:18:30.354Z,11.38
2018-10-17T05:19:30.340Z,11.38
2018-10-17T05:20:30.225Z,11.39
2018-10-17T05:21:30.169Z,11.43
2018-10-17T05:22:30.361Z,11.42
2018-10-17T05:23:30.124Z,11.43
2018-10-17T05:24:30.296Z,11.4
2018-10-17T05:25:29.961Z,11.31
2018-10-17T05:26:30.205Z,11.29
2018-10-17T05:27:30.088Z,11.24
2018-10-17T05:28:30.164Z,11.23
2018-10-17T05:29:30.300Z,11.2
2018-10-17T05:30:30.145Z,11.18
2018-10-17T05:31:30.457Z,11.18
2018-10-17T05:32:30.347Z,11.15
2018-10-17T05:33:30.137Z,11.16
2018-10-17T05:34:30.136Z,11.16
2018-10-17T05:35:30.180Z,11.19
2018-10-17T05:36:30.047Z,11.17
2018-10-17T05:37:31.064Z,11.2
2018-10-17T05:38:30.176Z,11.19
2018-10-17T05:39:30.031Z,11.21
2018-10-17T05:40:30.149Z,11.21
2018-10-17T05:41:30.081Z,11.22
2018-10-17T05:42:30.151Z,11.24
2018-10-17T05:43:30.099Z,11.22
2018-10-17T05:44:31.056Z,11.23
2018-10-17T05:45:30.241Z,11.21
2018-10-17T05:46:30.234Z,11.21
2018-10-17T05:47:30.158Z,11.21
2018-10-17T05:48:30.176Z,11.2
2018-10-17T05:49:30.052Z,11.19
2018-10-17T05:50:29.947Z,11.17
2018-10-17T05:51:30.158Z,11.16
2018-10-17T05:52:30.075Z,11.18
2018-10-17T05:53:30.111Z,11.18
2018-10-17T05:54:30.209Z,11.16
2018-10-17T05:55:30.528Z,11.18
2018-10-17T05:56:29.914Z,11.17
2018-10-17T05:57:30.147Z,11.16
2018-10-17T05:58:30.217Z,11.15
2018-10-17T05:59:30.052Z,11.16
2018-10-17T06:00:30.109Z,11.16
2018-10-17T06:01:31.094Z,11.17
2018-10-17T06:02:31.704Z,11.19
2018-10-17T06:03:30.047Z,11.17
2018-10-17T06:04:30.416Z,11.2
2018-10-17T06:05:30.375Z,11.2
2018-10-17T06:06:29.976Z,11.18
2018-10-17T06:07:30.132Z,11.21
2018-10-17T06:08:30.044Z,11.21
2018-10-17T06:09:30.297Z,11.25
2018-10-17T06:10:30.123Z,11.27
2018-10-17T06:11:30.179Z,11.27
2018-10-17T06:12:30.362Z,11.3
2018-10-17T06:13:30.281Z,11.29
2018-10-17T06:14:30.459Z,11.31
2018-10-17T06:15:30.136Z,11.3
2018-10-17T06:16:30.265Z,11.32
2018-10-17T06:17:31.281Z,11.32
2018-10-17T06:18:30.113Z,11.33
2018-10-17T06:19:30.000Z,11.34
2018-10-17T06:20:30.007Z,11.34
2018-10-17T06:21:30.017Z,11.36
2018-10-17T06:22:30.105Z,11.33
2018-10-17T06:23:29.979Z,11.35
2018-10-17T06:24:30.390Z,11.33
2018-10-17T06:25:30.432Z,11.31
2018-10-17T06:26:30.474Z,11.33
2018-10-17T06:27:30.119Z,11.33
2018-10-17T06:28:30.401Z,11.32
2018-10-17T06:29:29.999Z,11.34
2018-10-17T06:30:30.442Z,11.34
2018-10-17T06:31:30.010Z,11.34
2018-10-17T06:32:29.958Z,11.37
2018-10-17T06:33:29.984Z,11.37
2018-10-17T06:34:30.545Z,11.39
2018-10-17T06:35:29.955Z,11.4
2018-10-17T06:36:30.273Z,11.43
2018-10-17T06:37:30.029Z,11.43
2018-10-17T06:38:29.960Z,11.45
2018-10-17T06:39:29.991Z,11.46
2018-10-17T06:40:29.996Z,11.49
2018-10-17T06:41:30.046Z,11.51
2018-10-17T06:42:29.980Z,11.52
2018-10-17T06:43:30.940Z,11.55
2018-10-17T06:44:29.993Z,11.53
2018-10-17T06:45:30.237Z,11.56
2018-10-17T06:46:30.116Z,11.57
2018-10-17T06:47:30.047Z,11.57
2018-10-17T06:48:30.113Z,11.59
2018-10-17T06:49:30.358Z,11.62
2018-10-17T06:50:29.989Z,11.64
2018-10-17T06:51:29.979Z,11.65
2018-10-17T06:52:30.292Z,11.69
2018-10-17T06:53:30.057Z,11.73
2018-10-17T06:54:31.823Z,11.72
2018-10-17T06:55:29.931Z,11.76
2018-10-17T06:56:29.992Z,11.79
2018-10-17T06:57:30.343Z,11.82
2018-10-17T06:58:29.979Z,11.83
2018-10-17T06:59:29.946Z,11.86
2018-10-17T07:00:29.966Z,11.88
2018-10-17T07:01:30.360Z,11.89
2018-10-17T07:02:29.973Z,11.89
2018-10-17T07:03:30.265Z,11.92
2018-10-17T07:04:30.174Z,11.94
2018-10-17T07:05:29.955Z,11.96
2018-10-17T07:06:30.189Z,12.01
2018-10-17T07:07:30.244Z,12.02
2018-10-17T07:08:31.039Z,12.06
2018-10-17T07:09:30.211Z,12.11
2018-10-17T07:10:29.944Z,12.13
2018-10-17T07:11:30.211Z,12.17
2018-10-17T07:12:29.936Z,12.19
2018-10-17T07:13:30.014Z,12.23
2018-10-17T07:14:29.897Z,12.25
2018-10-17T07:15:32.185Z,12.29
2018-10-17T07:16:29.896Z,12.33
2018-10-17T07:17:30.148Z,12.36
2018-10-17T07:18:29.959Z,12.4
2018-10-17T07:19:29.923Z,12.42
2018-10-17T07:20:30.060Z,12.46
2018-10-17T07:21:30.041Z,12.48
2018-10-17T07:22:30.225Z,12.52
2018-10-17T07:23:29.915Z,12.54
2018-10-17T07:24:29.934Z,12.58
2018-10-17T07:25:29.919Z,12.59
2018-10-17T07:26:29.956Z,12.58
2018-10-17T07:27:29.998Z,12.59
2018-10-17T07:28:30.225Z,12.61
2018-10-17T07:29:32.424Z,12.6
2018-10-17T07:30:30.087Z,12.56
2018-10-17T07:31:29.934Z,12.56
2018-10-17T07:32:30.247Z,12.57
2018-10-17T07:33:29.883Z,12.58
2018-10-17T07:34:30.167Z,12.58
2018-10-17T07:35:30.906Z,12.57
2018-10-17T07:36:29.882Z,12.58
2018-10-17T07:37:30.170Z,12.6
2018-10-17T07:38:30.282Z,12.54
2018-10-17T07:39:29.907Z,12.55
2018-10-17T07:40:29.960Z,12.59
2018-10-17T07:41:29.920Z,12.61
2018-10-17T07:42:29.927Z,12.65
2018-10-17T07:43:29.936Z,12.69
2018-10-17T07:44:30.047Z,12.67
2018-10-17T07:45:30.413Z,12.71
2018-10-17T07:46:30.143Z,12.72
2018-10-17T07:47:29.934Z,12.72
2018-10-17T07:48:29.845Z,12.73
2018-10-17T07:49:29.902Z,12.78
2018-10-17T07:50:29.914Z,12.83
2018-10-17T07:51:29.846Z,12.85
2018-10-17T07:52:29.926Z,12.89
2018-10-17T07:53:31.251Z,12.91
2018-10-17T07:54:29.858Z,12.93
2018-10-17T07:55:29.882Z,13
2018-10-17T07:56:29.881Z,13
2018-10-17T07:57:29.898Z,13.04
2018-10-17T07:58:29.883Z,13.06
2018-10-17T07:59:30.207Z,13.11
2018-10-17T08:00:31.209Z,13.12
2018-10-17T08:01:29.863Z,13.17
2018-10-17T08:02:29.896Z,13.2
2018-10-17T08:03:30.183Z,13.19
2018-10-17T08:04:29.894Z,13.25
2018-10-17T08:05:29.937Z,13.28
2018-10-17T08:06:30.429Z,13.3
2018-10-17T08:07:29.952Z,13.34
2018-10-17T08:08:30.252Z,13.36
2018-10-17T08:09:29.864Z,13.4
2018-10-17T08:10:29.869Z,13.41
2018-10-17T08:11:29.891Z,13.44
2018-10-17T08:12:29.933Z,13.43
2018-10-17T08:13:29.895Z,13.46
2018-10-17T08:14:29.931Z,13.48
2018-10-17T08:15:29.879Z,13.47
2018-10-17T08:16:30.222Z,13.48
2018-10-17T08:17:30.007Z,13.5
2018-10-17T08:18:29.870Z,13.54
2018-10-17T08:19:29.815Z,13.57
2018-10-17T08:20:29.859Z,13.6
2018-10-17T08:21:31.207Z,13.63
2018-10-17T08:22:29.924Z,13.66
2018-10-17T08:23:30.224Z,13.67
2018-10-17T08:24:29.828Z,13.69
2018-10-17T08:25:29.851Z,13.74
2018-10-17T08:26:29.831Z,13.75
2018-10-17T08:27:31.105Z,13.77
2018-10-17T08:28:30.038Z,13.81
2018-10-17T08:29:29.846Z,13.83
2018-10-17T08:30:29.943Z,13.85
2018-10-17T08:31:29.838Z,13.89
2018-10-17T08:32:29.829Z,13.89
2018-10-17T08:33:30.564Z,13.93
2018-10-17T08:34:30.155Z,13.99
2018-10-17T08:35:32.841Z,14.03
2018-10-17T08:36:33.476Z,14.05
2018-10-17T08:37:35.918Z,14.07
2018-10-17T08:38:29.801Z,14.12
2018-10-17T08:39:29.866Z,14.16
2018-10-17T08:40:29.810Z,14.19
2018-10-17T08:41:29.974Z,14.23
2018-10-17T08:42:30.289Z,14.24
2018-10-17T08:43:29.957Z,14.28
2018-10-17T08:44:30.136Z,14.3
2018-10-17T08:45:29.886Z,14.37
2018-10-17T08:47:29.849Z,14.42
2018-10-17T08:48:30.084Z,14.44
2018-10-17T08:49:29.850Z,14.48
2018-10-17T08:50:30.387Z,14.53
2018-10-17T08:51:29.892Z,14.63
2018-10-17T08:52:29.782Z,14.65
2018-10-17T08:53:29.913Z,14.69
2018-10-17T08:54:29.892Z,14.72
2018-10-17T08:55:29.785Z,14.77
2018-10-17T08:56:29.932Z,14.8
2018-10-17T08:57:29.935Z,14.85
2018-10-17T08:58:29.876Z,14.93
2018-10-17T08:59:29.877Z,14.97
2018-10-17T09:00:29.977Z,14.98
2018-10-17T09:01:29.809Z,14.99
2018-10-17T09:02:29.898Z,15.03
2018-10-17T09:03:29.809Z,15.05
2018-10-17T09:04:29.756Z,15.06
2018-10-17T09:05:30.610Z,15.1
2018-10-17T09:06:30.074Z,15.15
2018-10-17T09:07:29.781Z,15.15
2018-10-17T09:08:29.891Z,15.23
2018-10-17T09:09:29.764Z,15.26
2018-10-17T09:10:29.742Z,15.28
2018-10-17T09:11:29.807Z,15.29
2018-10-17T09:12:29.773Z,15.34
2018-10-17T09:13:30.578Z,15.35
2018-10-17T09:14:29.771Z,15.4
2018-10-17T09:15:29.810Z,15.46
2018-10-17T09:16:30.360Z,15.44
2018-10-17T09:17:29.764Z,15.59
2018-10-17T09:18:29.768Z,15.63
2018-10-17T09:19:32.441Z,15.78
2018-10-17T09:20:33.525Z,15.8
2018-10-17T09:21:33.069Z,15.86
2018-10-17T09:22:30.755Z,15.94
2018-10-17T09:23:29.805Z,15.96
2018-10-17T09:24:29.816Z,15.97
2018-10-17T09:25:30.124Z,16
2018-10-17T09:26:29.763Z,16.01
2018-10-17T09:27:29.941Z,16.04
2018-10-17T09:28:29.795Z,16.13
2018-10-17T09:29:29.792Z,16.15
2018-10-17T09:30:32.415Z,16.18
2018-10-17T09:31:29.846Z,16.21
2018-10-17T09:32:29.872Z,16.25
2018-10-17T09:33:29.774Z,16.27
2018-10-17T09:34:29.736Z,16.3
2018-10-17T09:35:30.067Z,16.33
2018-10-17T09:36:29.867Z,16.35
2018-10-17T09:37:29.708Z,16.41
2018-10-17T09:38:29.847Z,16.46
2018-10-17T09:39:29.943Z,16.55
2018-10-17T09:40:29.755Z,16.52
2018-10-17T09:41:30.086Z,16.58
2018-10-17T09:42:29.899Z,16.62
2018-10-17T09:43:29.776Z,16.64
2018-10-17T09:44:29.863Z,16.66
2018-10-17T09:45:29.760Z,16.67
2018-10-17T09:46:29.716Z,16.7
2018-10-17T09:47:29.763Z,16.81
2018-10-17T09:48:29.853Z,16.84
2018-10-17T09:49:29.821Z,16.82
2018-10-17T09:50:29.874Z,16.86
2018-10-17T09:51:30.091Z,16.88
2018-10-17T09:52:29.868Z,16.88
2018-10-17T09:53:31.372Z,16.93
2018-10-17T09:54:29.866Z,16.93
2018-10-17T09:55:29.813Z,16.99
2018-10-17T09:56:29.908Z,17.04
2018-10-17T09:57:29.812Z,17.05
2018-10-17T09:58:29.848Z,17.13
2018-10-17T09:59:30.125Z,17.15
2018-10-17T10:00:29.753Z,17.17
2018-10-17T10:01:29.879Z,17.21
2018-10-17T10:02:30.916Z,17.28
2018-10-17T10:03:29.776Z,17.3
2018-10-17T10:04:29.804Z,17.36
2018-10-17T10:05:29.753Z,17.39
2018-10-17T10:06:29.870Z,17.43
2018-10-17T10:07:29.815Z,17.55
2018-10-17T10:08:29.756Z,17.57
2018-10-17T10:09:29.709Z,17.68
2018-10-17T10:10:29.830Z,17.65
2018-10-17T10:11:29.809Z,17.7
2018-10-17T10:12:29.758Z,17.71
2018-10-17T10:13:29.828Z,17.76
2018-10-17T10:14:29.845Z,17.78
2018-10-17T10:15:29.864Z,17.8
2018-10-17T10:16:29.790Z,17.83
2018-10-17T10:17:30.555Z,17.83
2018-10-17T10:18:29.762Z,17.88
2018-10-17T10:19:29.821Z,17.9
2018-10-17T10:20:29.831Z,17.96
2018-10-17T10:21:29.677Z,18.1
2018-10-17T10:22:35.985Z,18.09
2018-10-17T10:23:30.210Z,18.13
2018-10-17T10:24:30.620Z,18.09
2018-10-17T10:25:29.690Z,18.15
2018-10-17T10:26:29.731Z,18.18
2018-10-17T10:27:29.779Z,18.26
2018-10-17T10:28:30.681Z,18.26
2018-10-17T10:29:29.933Z,18.24
2018-10-17T10:30:29.762Z,18.24
2018-10-17T10:31:29.747Z,18.26
2018-10-17T10:32:29.833Z,18.28
2018-10-17T10:33:29.701Z,18.34
2018-10-17T10:34:29.710Z,18.36
2018-10-17T10:35:30.139Z,18.37
2018-10-17T10:36:29.676Z,18.4
2018-10-17T10:37:29.793Z,18.42
2018-10-17T10:38:29.692Z,18.46
2018-10-17T10:39:29.985Z,18.47
2018-10-17T10:40:30.378Z,18.55
2018-10-17T10:41:29.701Z,18.58
2018-10-17T10:42:29.727Z,18.63
2018-10-17T10:43:29.684Z,18.7
2018-10-17T10:45:30.546Z,18.63
2018-10-17T10:46:29.943Z,18.62
2018-10-17T10:47:29.679Z,18.69
2018-10-17T10:48:29.672Z,18.67
2018-10-17T10:49:29.682Z,18.65
2018-10-17T10:50:29.694Z,18.68
2018-10-17T10:51:30.328Z,18.69
2018-10-17T10:52:29.679Z,18.7
2018-10-17T10:53:29.722Z,18.75
2018-10-17T10:54:30.058Z,18.72
2018-10-17T10:55:29.634Z,18.74
2018-10-17T10:56:29.685Z,18.73
2018-10-17T10:57:29.842Z,18.71
2018-10-17T10:58:32.306Z,18.75
2018-10-17T10:59:32.306Z,18.76
2018-10-17T11:00:29.662Z,18.76
2018-10-17T11:01:29.846Z,18.75
2018-10-17T11:02:29.755Z,18.72
2018-10-17T11:03:29.978Z,18.74
2018-10-17T11:04:30.166Z,18.77
2018-10-17T11:05:32.634Z,18.83
2018-10-17T11:06:29.667Z,18.89
2018-10-17T11:07:29.663Z,18.86
2018-10-17T11:08:29.670Z,19.06
2018-10-17T11:09:29.720Z,19.09
2018-10-17T11:10:29.654Z,19.04
2018-10-17T11:11:29.877Z,19.05
2018-10-17T11:12:29.813Z,19.05
2018-10-17T11:13:29.617Z,19.09
2018-10-17T11:14:31.624Z,19.07
2018-10-17T11:15:29.762Z,19.09
2018-10-17T11:16:29.734Z,19.13
2018-10-17T11:17:29.726Z,19.15
2018-10-17T11:18:29.956Z,19.18
2018-10-17T11:19:29.247Z,19.2
2018-10-17T11:20:29.821Z,19.18
2018-10-17T11:21:29.587Z,19.19
2018-10-17T11:22:29.799Z,19.24
2018-10-17T11:23:29.579Z,19.26
2018-10-17T11:24:29.629Z,19.27
2018-10-17T11:25:29.691Z,19.27
2018-10-17T11:26:29.601Z,19.26
2018-10-17T11:27:30.036Z,19.29
2018-10-17T11:28:29.653Z,19.3
2018-10-17T11:29:29.633Z,19.31
2018-10-17T11:30:29.741Z,19.35
2018-10-17T11:31:30.281Z,19.34
2018-10-17T11:32:29.556Z,19.34
2018-10-17T11:33:29.721Z,19.37
2018-10-17T11:34:29.594Z,19.51
2018-10-17T11:35:29.554Z,19.52
2018-10-17T11:36:29.570Z,19.52
2018-10-17T11:37:30.824Z,19.54
2018-10-17T11:38:29.736Z,19.56
2018-10-17T11:39:29.705Z,19.63
2018-10-17T11:40:30.479Z,19.63
2018-10-17T11:41:30.440Z,19.6
2018-10-17T11:42:29.671Z,19.66
2018-10-17T11:43:29.751Z,19.66
2018-10-17T11:44:29.543Z,19.66
2018-10-17T11:45:29.671Z,19.69
2018-10-17T11:46:29.575Z,19.77
2018-10-17T11:47:30.156Z,19.81
2018-10-17T11:48:29.691Z,19.89
2018-10-17T11:49:29.757Z,20.02
2018-10-17T11:50:29.991Z,20
2018-10-17T11:51:29.682Z,20.08
2018-10-17T11:52:29.662Z,20.13
2018-10-17T11:53:29.702Z,20.11
2018-10-17T11:54:29.628Z,20.13
2018-10-17T11:55:29.538Z,20.16
2018-10-17T11:56:29.806Z,20.18
2018-10-17T11:57:29.595Z,20.18
2018-10-17T11:58:29.590Z,20.19
2018-10-17T11:59:29.986Z,20.24
2018-10-17T12:00:29.554Z,20.33
2018-10-17T12:01:29.636Z,20.39
2018-10-17T12:02:29.538Z,20.48
2018-10-17T12:03:30.201Z,20.54
2018-10-17T12:04:32.173Z,20.57
2018-10-17T12:05:34.507Z,20.54
2018-10-17T12:06:31.016Z,20.53
2018-10-17T12:07:29.576Z,20.54
2018-10-17T12:08:29.643Z,20.52
2018-10-17T12:09:29.733Z,20.53
2018-10-17T12:10:29.542Z,20.54
2018-10-17T12:11:31.406Z,20.51
2018-10-17T12:12:29.766Z,20.54
2018-10-17T12:13:29.702Z,20.54
2018-10-17T12:14:29.528Z,20.62
2018-10-17T12:15:29.649Z,20.66
2018-10-17T12:16:29.604Z,20.66
2018-10-17T12:17:29.541Z,20.77
2018-10-17T12:18:29.618Z,20.74
2018-10-17T12:19:29.599Z,20.75
2018-10-17T12:20:29.553Z,20.82
2018-10-17T12:21:30.857Z,20.8
2018-10-17T12:22:29.570Z,20.89
2018-10-17T12:23:29.710Z,20.93
2018-10-17T12:24:29.549Z,20.98
2018-10-17T12:25:29.593Z,20.95
2018-10-17T12:26:29.496Z,20.95
2018-10-17T12:27:29.612Z,20.95
2018-10-17T12:28:31.197Z,20.99
2018-10-17T12:29:29.572Z,20.97
2018-10-17T12:30:29.957Z,20.98
2018-10-17T12:31:29.525Z,21.02
2018-10-17T12:32:29.630Z,20.99
2018-10-17T12:33:29.509Z,21
2018-10-17T12:34:29.618Z,21
2018-10-17T12:35:29.597Z,21.06
2018-10-17T12:36:29.542Z,21.04
2018-10-17T12:37:29.595Z,21.07
2018-10-17T12:38:29.920Z,21.06
2018-10-17T12:39:31.876Z,21.04
2018-10-17T12:40:31.570Z,21.08
2018-10-17T12:41:30.381Z,21.08
2018-10-17T12:42:29.562Z,21.12
2018-10-17T12:43:29.551Z,21.11
2018-10-17T12:44:29.655Z,21.09
2018-10-17T12:45:29.957Z,21.12
2018-10-17T12:46:29.867Z,21.08
2018-10-17T12:47:29.612Z,21.07
2018-10-17T12:48:29.593Z,21.05
2018-10-17T12:49:29.583Z,21.07
2018-10-17T12:50:29.584Z,21.11
2018-10-17T12:51:29.493Z,21.06
2018-10-17T12:52:30.589Z,21.09
2018-10-17T12:53:30.581Z,21.13
2018-10-17T12:54:29.613Z,21.14
2018-10-17T12:55:29.622Z,21.2
2018-10-17T12:56:29.858Z,21.24
2018-10-17T12:57:29.574Z,21.24
2018-10-17T12:58:29.735Z,21.23
2018-10-17T12:59:29.539Z,21.28
2018-10-17T13:00:29.529Z,21.29